Time;durP1;ratioP1;P1;durP2;ratioP2;P2;SDS_P1;SDS_P2;PMS_P1;PMS_P2;Temp;Humidity;BMP_temperature;BMP_pressure;BME280_temperature;BME280_humidity;BME280_pressure;Samples;Min_cycle;Max_cycle;Signal;HPM_P1;HPM_P2
2021/01/22 00:01:59;;;;;;;270.13;99.67;;;;;;;-2.14;94.08;97324.31;5056749;28;20048;-63
2021/01/22 00:04:27;;;;;;;264.73;85.32;;;;;;;-2.12;94.13;97322.63;5056466;28;20052;-63
2021/01/22 00:06:53;;;;;;;350.00;110.60;;;;;;;-2.10;93.87;97312.63;5056528;28;20450;-63
2021/01/22 00:09:19;;;;;;;353.93;113.40;;;;;;;-2.09;94.23;97317.66;5056666;28;20033;-62
2021/01/22 00:11:45;;;;;;;268.15;86.13;;;;;;;-2.13;94.06;97320.97;5052470;28;20041;-63
2021/01/22 00:14:10;;;;;;;352.07;112.07;;;;;;;-2.13;93.96;97320.13;5052160;28;20041;-63
2021/01/22 00:16:36;;;;;;;257.73;84.23;;;;;;;-2.08;94.02;97308.47;5056614;28;20033;-63
2021/01/22 00:19:01;;;;;;;355.73;112.30;;;;;;;-1.96;94.05;97299.38;5056732;28;20037;-63
2021/01/22 00:21:27;;;;;;;270.17;87.83;;;;;;;-1.90;93.65;97299.41;5056820;28;20504;-63
2021/01/22 00:23:52;;;;;;;359.10;112.53;;;;;;;-1.92;93.37;97310.28;5056645;28;20102;-63
2021/01/22 00:26:17;;;;;;;266.60;84.37;;;;;;;-1.91;93.86;97297.72;5056778;28;20021;-62
2021/01/22 00:28:43;;;;;;;254.27;81.77;;;;;;;-1.91;93.44;97297.72;5056006;28;20376;-63
2021/01/22 00:31:08;;;;;;;261.10;81.87;;;;;;;-1.89;93.48;97292.72;5056413;28;20049;-63
2021/01/22 00:33:33;;;;;;;347.00;105.40;;;;;;;-1.83;93.35;97277.69;5055407;28;20029;-63
2021/01/22 00:35:59;;;;;;;267.00;86.53;;;;;;;-1.83;93.27;97281.88;5055535;28;20033;-63
2021/01/22 00:38:24;;;;;;;358.50;113.87;;;;;;;-1.83;93.39;97280.22;5055488;28;20408;-63
2021/01/22 00:40:50;;;;;;;266.17;84.93;;;;;;;-1.81;93.16;97273.50;5055275;28;20453;-63
2021/01/22 00:43:16;;;;;;;349.57;109.40;;;;;;;-1.83;92.94;97269.31;5044211;28;20021;-63
2021/01/22 00:45:41;;;;;;;264.93;84.40;;;;;;;-1.78;92.90;97247.59;5035735;28;20065;-64
2021/01/22 00:48:07;;;;;;;269.83;82.73;;;;;;;-1.66;92.73;97233.44;5036740;28;20040;-63
2021/01/22 00:50:32;;;;;;;271.90;90.47;;;;;;;-1.60;92.53;97240.16;5036724;28;20445;-63
2021/01/22 00:52:57;;;;;;;257.33;81.83;;;;;;;-1.58;92.69;97234.34;5056243;28;20152;-63
2021/01/22 00:55:23;;;;;;;258.17;83.00;;;;;;;-1.57;92.34;97243.53;5055643;28;20452;-63
2021/01/22 00:57:48;;;;;;;349.07;111.70;;;;;;;-1.60;92.16;97241.00;5055829;28;20048;-64
2021/01/22 01:00:14;;;;;;;350.70;109.07;;;;;;;-1.52;92.46;97233.50;5056435;28;20083;-63
2021/01/22 01:02:39;;;;;;;267.48;85.63;;;;;;;-1.54;92.32;97227.66;5055210;28;20072;-63
2021/01/22 01:05:06;;;;;;;268.33;85.13;;;;;;;-1.53;92.03;97224.31;5055208;28;20127;-63
2021/01/22 01:07:32;;;;;;;262.23;83.70;;;;;;;-1.53;92.07;97219.28;5055121;28;20060;-63
2021/01/22 01:09:58;;;;;;;344.70;105.70;;;;;;;-1.55;92.14;97214.25;5055914;28;20032;-63
2021/01/22 01:12:23;;;;;;;351.73;110.83;;;;;;;-1.54;92.15;97208.38;5055099;28;20361;-63
2021/01/22 01:14:49;;;;;;;348.70;110.20;;;;;;;-1.50;91.92;97204.22;5055715;28;20106;-63
2021/01/22 01:17:14;;;;;;;264.43;83.57;;;;;;;-1.48;91.97;97195.00;5055470;28;20044;-63
2021/01/22 01:19:39;;;;;;;261.03;82.37;;;;;;;-1.44;91.87;97191.66;5054661;28;20036;-63
2021/01/22 01:22:05;;;;;;;260.73;82.97;;;;;;;-1.39;91.76;97190.88;5055912;28;20403;-63
2021/01/22 01:24:30;;;;;;;349.97;110.73;;;;;;;-1.31;91.57;97183.34;5053692;28;20037;-63
2021/01/22 01:26:55;;;;;;;260.23;83.87;;;;;;;-1.25;91.51;97175.84;5052714;28;20071;-64
2021/01/22 01:29:21;;;;;;;263.10;82.27;;;;;;;-1.18;91.59;97162.44;5054430;28;20051;-63
2021/01/22 01:31:46;;;;;;;351.43;107.97;;;;;;;-1.16;91.28;97164.97;5054330;28;20062;-63
2021/01/22 01:34:12;;;;;;;348.53;108.07;;;;;;;-1.10;91.04;97160.78;5054801;28;20120;-63
2021/01/22 01:36:37;;;;;;;348.10;109.03;;;;;;;-1.03;90.35;97162.50;5054705;28;20179;-63
2021/01/22 01:39:03;;;;;;;257.90;81.07;;;;;;;-1.02;90.64;97154.09;5053986;28;20048;-63
2021/01/22 01:41:28;;;;;;;261.97;83.37;;;;;;;-1.03;90.89;97152.44;5054656;28;20540;-63
2021/01/22 01:43:54;;;;;;;263.03;82.23;;;;;;;-1.00;91.17;97149.94;5043465;28;20483;-64
2021/01/22 01:46:20;;;;;;;263.67;83.00;;;;;;;-0.97;91.00;97149.94;5055389;28;20159;-63
2021/01/22 01:48:45;;;;;;;342.35;106.30;;;;;;;-0.90;90.78;97145.78;5053536;28;20097;-63
2021/01/22 01:51:11;;;;;;;264.07;84.10;;;;;;;-0.92;91.03;97140.72;5055047;28;20357;-63
2021/01/22 01:53:37;;;;;;;261.00;79.23;;;;;;;-0.58;92.21;97148.31;5050203;28;20037;-63
2021/01/22 01:56:02;;;;;;;260.27;81.70;;;;;;;-0.49;91.23;97134.06;5035077;28;20033;-63
2021/01/22 01:58:29;;;;;;;258.90;82.30;;;;;;;-0.52;90.86;97125.69;5050943;28;20453;-63
2021/01/22 02:00:54;;;;;;;260.90;81.32;;;;;;;-0.51;90.67;97133.22;5052188;28;20105;-63
2021/01/22 02:03:20;;;;;;;260.27;80.27;;;;;;;-0.51;91.04;97122.34;5053911;28;20048;-63
2021/01/22 02:05:46;;;;;;;262.93;83.10;;;;;;;-0.42;91.33;97112.22;5054034;28;20506;-64
2021/01/22 02:08:13;;;;;;;346.42;104.57;;;;;;;-0.37;91.50;97119.78;5044223;28;20120;-63
2021/01/22 02:10:38;;;;;;;264.23;81.80;;;;;;;0.28;91.99;97117.16;5033950;28;20029;-63
2021/01/22 02:13:05;;;;;;;346.80;106.30;;;;;;;0.70;90.37;97122.03;5040001;28;20338;-63
2021/01/22 02:15:31;;;;;;;258.25;80.35;;;;;;;0.83;89.33;97102.63;5054771;28;20408;-63
2021/01/22 02:17:57;;;;;;;266.08;81.82;;;;;;;0.87;89.19;97114.38;5052185;28;20064;-63
2021/01/22 02:20:50;;;;;;;348.67;108.00;;;;;;;1.03;88.85;97107.53;5052424;28;20369;-63
2021/01/22 02:23:20;;;;;;;341.55;103.55;;;;;;;1.00;88.60;97094.97;5052752;28;20029;-63
2021/01/22 02:25:47;;;;;;;353.75;109.28;;;;;;;0.97;88.78;97095.81;5054038;28;20037;-63
2021/01/22 02:28:16;;;;;;;348.83;104.60;;;;;;;1.07;88.92;97086.50;5052797;28;20028;-63
2021/01/22 02:30:45;;;;;;;352.85;107.70;;;;;;;1.06;88.51;97084.84;5053516;28;20091;-63
2021/01/22 02:33:13;;;;;;;348.02;105.80;;;;;;;0.99;89.05;97088.22;5052551;28;20036;-63
2021/01/22 02:35:40;;;;;;;250.15;79.10;;;;;;;1.13;89.59;97083.94;5054101;28;20158;-64
2021/01/22 02:38:06;;;;;;;350.30;105.32;;;;;;;1.47;90.15;97080.31;5049663;28;20045;-63
2021/01/22 02:40:34;;;;;;;351.85;107.85;;;;;;;1.70;89.34;97080.09;5034345;28;20033;-64
2021/01/22 02:43:01;;;;;;;360.92;116.15;;;;;;;1.94;87.72;97074.81;5033513;28;20426;-63
2021/01/22 02:45:28;;;;;;;358.35;109.82;;;;;;;2.42;85.57;97067.56;5054114;28;20033;-63
2021/01/22 02:47:54;;;;;;;360.40;112.75;;;;;;;2.42;84.73;97050.66;5052834;28;20025;-63
2021/01/22 02:50:47;;;;;;;353.80;108.50;;;;;;;2.81;86.36;97054.38;5053417;28;20033;-63
2021/01/22 02:53:12;;;;;;;360.58;117.88;;;;;;;3.85;85.05;97059.47;5049479;28;20064;-63
2021/01/22 02:55:38;;;;;;;365.20;114.23;;;;;;;4.40;82.58;97045.72;5054207;28;20535;-63
2021/01/22 02:58:16;;;;;;;366.87;116.70;;;;;;;4.75;80.06;97053.47;5052598;28;20064;-63
2021/01/22 03:00:47;;;;;;;373.70;122.15;;;;;;;5.03;78.60;97058.75;5017854;28;20041;-63
2021/01/22 03:03:24;;;;;;;371.17;120.28;;;;;;;5.06;78.29;97058.69;5052291;28;20039;-64
2021/01/22 03:05:50;;;;;;;375.67;124.28;;;;;;;5.23;77.07;97055.75;5052192;28;20043;-63
2021/01/22 03:08:20;;;;;;;378.02;125.80;;;;;;;5.63;75.18;97063.28;5051868;28;20037;-64
2021/01/22 03:10:48;;;;;;;378.15;126.63;;;;;;;5.91;73.57;97064.25;5053003;28;20043;-64
2021/01/22 03:13:16;;;;;;;380.60;130.75;;;;;;;5.85;73.96;97056.78;5034874;28;20356;-64
2021/01/22 03:15:42;;;;;;;379.55;128.52;;;;;;;6.15;72.04;97050.09;5052203;28;20065;-66
2021/01/22 03:18:15;;;;;;;383.23;133.60;;;;;;;6.61;70.48;97052.19;5040318;28;20075;-66
2021/01/22 03:20:42;;;;;;;384.60;138.30;;;;;;;7.14;68.12;97042.94;5047832;28;20310;-66
2021/01/22 03:23:08;;;;;;;383.92;137.60;;;;;;;7.43;66.57;97032.66;5053184;28;20511;-66
2021/01/22 03:25:33;;;;;;;390.47;147.63;;;;;;;7.72;65.07;97029.16;5052751;28;20041;-68
2021/01/22 03:27:59;;;;;;;389.37;144.80;;;;;;;7.84;64.45;97012.59;5053369;28;20083;-68
2021/01/22 03:30:24;;;;;;;393.27;150.40;;;;;;;7.87;64.39;97012.50;5056689;28;20102;-68
2021/01/22 03:32:50;;;;;;;392.73;158.07;;;;;;;8.11;62.91;97019.28;5056799;28;20482;-68
2021/01/22 03:35:16;;;;;;;393.33;152.83;;;;;;;8.18;62.23;97024.16;5057524;28;20041;-69
2021/01/22 03:37:41;;;;;;;397.20;163.03;;;;;;;8.39;62.08;97026.84;5056957;28;20044;-69
2021/01/22 03:40:07;;;;;;;397.37;164.20;;;;;;;8.42;61.42;97016.53;5056362;28;20362;-68
2021/01/22 03:42:33;;;;;;;396.30;164.18;;;;;;;8.64;60.56;97015.69;5056998;28;20039;-69
2021/01/22 03:44:58;;;;;;;398.17;170.30;;;;;;;8.96;59.20;97022.13;5047334;28;20041;-69
2021/01/22 03:47:23;;;;;;;400.93;179.07;;;;;;;9.03;59.86;97015.91;5056675;28;20033;-68
2021/01/22 03:49:49;;;;;;;401.57;178.70;;;;;;;9.13;58.81;97001.00;5056558;28;20122;-69
2021/01/22 03:52:14;;;;;;;405.43;184.20;;;;;;;9.41;58.17;97013.53;5056957;28;20087;-69
2021/01/22 03:54:40;;;;;;;402.37;179.67;;;;;;;9.50;58.03;97000.38;5056562;28;20464;-69
2021/01/22 03:57:05;;;;;;;402.73;184.40;;;;;;;9.70;57.18;96989.31;5056594;28;20044;-69
2021/01/22 03:59:30;;;;;;;405.70;191.03;;;;;;;9.66;56.53;96996.31;5056621;28;20052;-69
2021/01/22 04:01:56;;;;;;;408.27;198.50;;;;;;;9.94;56.19;96986.56;5056348;28;20045;-67
2021/01/22 04:04:21;;;;;;;405.10;190.80;;;;;;;9.92;56.32;96998.59;5056616;28;20032;-68
2021/01/22 04:06:46;;;;;;;407.80;199.23;;;;;;;9.97;56.25;96996.66;5056542;28;20361;-69
2021/01/22 04:09:12;;;;;;;408.73;201.00;;;;;;;10.01;55.18;96993.06;5056271;28;20078;-68
2021/01/22 04:11:37;;;;;;;407.87;201.33;;;;;;;10.18;54.84;97006.91;5055232;28;20156;-68
2021/01/22 04:14:02;;;;;;;413.13;215.40;;;;;;;10.18;54.61;96994.97;5054340;28;20061;-69
2021/01/22 04:16:28;;;;;;;413.93;215.43;;;;;;;10.22;55.14;96991.34;5050402;28;20397;-68
2021/01/22 04:18:53;;;;;;;410.03;209.50;;;;;;;10.22;54.66;97000.78;5052564;28;20060;-64
2021/01/22 04:21:19;;;;;;;410.43;211.87;;;;;;;10.34;54.54;97002.78;5056239;28;20139;-64
2021/01/22 04:23:44;;;;;;;409.03;211.60;;;;;;;10.43;53.82;97003.22;5043651;28;20347;-64
2021/01/22 04:26:09;;;;;;;411.70;216.67;;;;;;;10.42;53.83;96999.00;5048029;28;20021;-64
2021/01/22 04:28:35;;;;;;;411.67;210.87;;;;;;;10.33;54.55;97003.69;5050299;28;20028;-64
2021/01/22 04:31:00;;;;;;;411.60;217.30;;;;;;;10.40;53.92;97003.34;5029035;28;20477;-68
2021/01/22 04:33:26;;;;;;;410.53;216.07;;;;;;;10.43;54.03;97010.91;5055762;28;20035;-68
2021/01/22 04:35:51;;;;;;;414.47;221.73;;;;;;;10.42;54.08;97010.97;5054453;28;20116;-68
2021/01/22 04:38:17;;;;;;;413.03;217.73;;;;;;;10.24;55.16;97001.50;5044635;28;20219;-70
2021/01/22 04:40:42;;;;;;;408.90;215.83;;;;;;;10.19;54.98;96999.16;5034296;28;20069;-67
2021/01/22 04:43:08;;;;;;;414.17;220.33;;;;;;;10.07;55.12;97015.84;5035277;28;20037;-68
2021/01/22 04:45:34;;;;;;;409.60;213.10;;;;;;;9.85;56.55;97033.00;5036889;28;20354;-68
2021/01/22 04:48:00;;;;;;;413.63;224.63;;;;;;;9.57;57.67;97019.69;5035601;28;20298;-68
2021/01/22 04:50:26;;;;;;;408.10;211.80;;;;;;;9.60;56.92;97022.97;5053843;28;20508;-69
2021/01/22 04:52:55;;;;;;;411.60;214.37;;;;;;;9.70;56.28;97030.25;5055881;28;20043;-69
2021/01/22 04:55:25;;;;;;;410.23;212.43;;;;;;;9.69;56.89;97034.53;5055364;28;20285;-69
2021/01/22 04:57:51;;;;;;;408.83;212.47;;;;;;;9.78;55.85;97029.06;5056125;28;20287;-69
2021/01/22 05:00:17;;;;;;;407.80;210.80;;;;;;;9.75;56.16;97028.34;5054988;28;20311;-69
2021/01/22 05:02:42;;;;;;;412.47;211.73;;;;;;;9.74;56.50;97035.19;5056080;28;20301;-71
2021/01/22 05:05:09;;;;;;;409.77;213.20;;;;;;;9.80;56.73;97040.03;5054657;28;20358;-68
2021/01/22 05:07:35;;;;;;;408.53;211.50;;;;;;;9.64;57.05;97032.16;5056153;28;20047;-69
2021/01/22 05:10:00;;;;;;;412.43;215.83;;;;;;;9.46;57.25;97029.53;5042168;28;20329;-69
2021/01/22 05:12:36;;;;;;;408.07;207.73;;;;;;;9.26;58.92;97034.59;5035380;28;20268;-68
2021/01/22 05:15:19;;;;;;;405.60;201.97;;;;;;;9.36;57.78;97035.91;5034454;28;20029;-67
2021/01/22 05:18:10;;;;;;;407.53;206.83;;;;;;;9.82;55.73;97048.50;5036344;28;20600;-67
2021/01/22 05:20:39;;;;;;;407.93;208.80;;;;;;;10.27;54.67;97038.06;5046250;28;20604;-67
2021/01/22 05:23:06;;;;;;;406.60;207.73;;;;;;;10.43;54.19;97043.38;5054947;28;20711;-67
2021/01/22 05:25:33;;;;;;;406.50;209.47;;;;;;;10.61;53.20;97045.09;5053380;28;20275;-67
2021/01/22 05:27:59;;;;;;;407.53;214.30;;;;;;;10.76;52.95;97046.16;5054399;28;20267;-67
2021/01/22 05:30:27;;;;;;;410.80;211.50;;;;;;;10.85;53.34;97051.72;5053802;28;20333;-67
2021/01/22 05:33:13;;;;;;;407.93;211.40;;;;;;;10.99;52.51;97045.94;5055665;28;20036;-67
2021/01/22 05:35:38;;;;;;;411.23;222.40;;;;;;;10.90;52.93;97049.78;5033815;28;20307;-69
2021/01/22 05:38:03;;;;;;;414.70;230.93;;;;;;;10.87;53.48;97051.63;5054655;28;20330;-68
2021/01/22 05:40:29;;;;;;;410.00;217.77;;;;;;;10.81;54.02;97049.34;5049041;28;20083;-68
2021/01/22 05:42:56;;;;;;;409.33;218.87;;;;;;;10.78;53.78;97042.63;5037543;28;20025;-68
2021/01/22 05:45:46;;;;;;;409.57;219.20;;;;;;;10.59;54.69;97057.16;5054460;28;20033;-68
2021/01/22 05:48:22;;;;;;;409.30;220.77;;;;;;;10.38;55.50;97053.81;5036004;28;20777;-68
2021/01/22 05:50:52;;;;;;;414.37;230.57;;;;;;;10.21;56.12;97066.53;5054572;28;20704;-68
2021/01/22 05:53:19;;;;;;;410.40;215.47;;;;;;;9.94;57.61;97063.34;5053351;28;20374;-68
2021/01/22 05:55:45;;;;;;;412.47;222.97;;;;;;;9.78;58.35;97059.75;5054621;28;20282;-68
2021/01/22 05:58:27;;;;;;;408.20;217.83;;;;;;;9.78;57.62;97052.09;5035435;28;21385;-68
2021/01/22 06:01:13;;;;;;;407.37;210.83;;;;;;;9.58;58.80;97062.31;5054251;28;20747;-68
2021/01/22 06:03:43;;;;;;;410.08;213.95;;;;;;;9.40;59.81;97075.81;5036175;28;20272;-67
2021/01/22 06:06:10;;;;;;;410.23;212.73;;;;;;;9.40;59.32;97070.69;5053593;28;20128;-69
2021/01/22 06:08:55;;;;;;;410.03;207.50;;;;;;;9.45;59.76;97068.81;5036445;28;20363;-69
2021/01/22 06:11:22;;;;;;;408.88;205.40;;;;;;;9.49;59.03;97065.22;5052596;28;20374;-69
2021/01/22 06:13:50;;;;;;;407.37;205.77;;;;;;;9.50;59.83;97061.78;5037167;28;20270;-67
2021/01/22 06:16:21;;;;;;;405.10;199.43;;;;;;;9.48;59.53;97061.00;5022250;28;20290;-68
2021/01/22 06:18:59;;;;;;;406.10;197.87;;;;;;;9.52;60.15;97067.66;5054923;28;20595;-68
2021/01/22 06:21:29;;;;;;;404.97;199.37;;;;;;;9.47;59.67;97055.03;5053133;28;20310;-67
2021/01/22 06:23:55;;;;;;;406.97;203.50;;;;;;;9.44;60.18;97064.56;5053868;28;20306;-68
2021/01/22 06:26:21;;;;;;;405.50;202.53;;;;;;;9.43;60.26;97050.09;5035441;28;20279;-67
2021/01/22 06:28:49;;;;;;;407.73;206.83;;;;;;;9.30;60.56;97060.00;5054220;28;20051;-67
2021/01/22 06:31:17;;;;;;;405.87;201.77;;;;;;;9.28;60.98;97066.06;5052040;28;20671;-68
2021/01/22 06:33:45;;;;;;;407.50;195.60;;;;;;;9.48;59.92;97073.78;5054485;28;20597;-67
2021/01/22 06:36:12;;;;;;;409.07;199.37;;;;;;;9.54;60.60;97063.31;5034971;28;20359;-68
2021/01/22 06:38:40;;;;;;;404.17;196.90;;;;;;;9.47;60.33;97060.16;5054022;28;20306;-68
2021/01/22 06:41:05;;;;;;;410.10;210.20;;;;;;;9.32;60.56;97053.09;5052312;28;20325;-68
2021/01/22 06:43:31;;;;;;;402.73;191.03;;;;;;;9.22;61.05;97063.75;5040000;28;20291;-68
2021/01/22 06:46:02;;;;;;;402.97;190.03;;;;;;;9.14;61.41;97067.44;5033120;28;20037;-68
2021/01/22 06:48:28;;;;;;;401.93;195.10;;;;;;;9.00;62.22;97074.78;5053585;28;20095;-68
2021/01/22 06:51:14;;;;;;;403.67;191.20;;;;;;;8.87;62.68;97083.78;5052907;28;20746;-68
2021/01/22 06:54:02;;;;;;;404.83;196.67;;;;;;;8.87;62.24;97072.78;5054798;28;20041;-68
2021/01/22 06:56:27;;;;;;;411.07;205.03;;;;;;;8.88;62.89;97071.84;5052550;28;20294;-69
2021/01/22 06:58:53;;;;;;;401.60;190.23;;;;;;;8.88;63.09;97069.31;5054583;28;20303;-68
2021/01/22 07:01:32;;;;;;;403.37;192.73;;;;;;;8.89;63.40;97076.91;5053433;28;20040;-68
2021/01/22 07:03:57;;;;;;;404.63;198.40;;;;;;;8.94;63.83;97081.88;5037190;28;20163;-64
2021/01/22 07:06:35;;;;;;;405.33;196.70;;;;;;;9.05;63.21;97059.28;5039613;28;20260;-64
2021/01/22 07:09:01;;;;;;;403.20;192.93;;;;;;;9.01;63.30;97067.94;5040596;28;20120;-63
2021/01/22 07:11:49;;;;;;;405.50;198.37;;;;;;;9.09;63.29;97058.25;5045021;28;20637;-64
2021/01/22 07:14:39;;;;;;;404.40;198.23;;;;;;;9.17;63.29;97057.09;5059120;28;20295;-65
2021/01/22 07:17:13;;;;;;;407.40;196.73;;;;;;;9.08;63.20;97047.19;5059692;28;20283;-64
2021/01/22 07:19:39;;;;;;;400.67;191.87;;;;;;;8.96;63.56;97055.34;5059451;28;20271;-65
2021/01/22 07:22:05;;;;;;;407.73;199.77;;;;;;;8.96;64.10;97044.28;5060366;28;20738;-63
2021/01/22 07:24:33;;;;;;;404.60;190.87;;;;;;;8.93;63.82;97049.53;5049435;28;20791;-66
2021/01/22 07:27:00;;;;;;;403.33;193.33;;;;;;;9.04;63.76;97052.50;5041704;28;20256;-63
2021/01/22 07:29:30;;;;;;;412.33;243.97;;;;;;;9.11;63.74;97044.56;5059809;28;20267;-63
2021/01/22 07:32:01;;;;;;;405.67;197.37;;;;;;;9.16;63.80;97045.19;5051880;28;20810;-63
2021/01/22 07:34:47;;;;;;;403.57;194.90;;;;;;;9.22;64.18;97033.06;5058752;28;20267;-63
2021/01/22 07:37:25;;;;;;;404.90;191.87;;;;;;;9.32;63.06;97036.94;5034379;28;20279;-64
2021/01/22 07:39:55;;;;;;;404.47;200.03;;;;;;;9.36;63.06;97031.63;5059681;28;20183;-64
2021/01/22 07:42:26;;;;;;;405.87;196.87;;;;;;;9.42;62.98;97030.56;5057799;28;20277;-64
2021/01/22 07:44:53;;;;;;;403.37;193.63;;;;;;;9.46;62.68;97021.88;5060433;28;20283;-64
2021/01/22 07:47:30;;;;;;;408.67;202.67;;;;;;;9.58;63.09;97021.38;5059227;28;20274;-64
2021/01/22 07:49:58;;;;;;;403.47;196.00;;;;;;;9.63;62.72;97016.91;5060277;28;20287;-65
2021/01/22 07:52:24;;;;;;;414.23;213.07;;;;;;;9.65;62.44;97020.22;5058878;28;20260;-64
2021/01/22 07:54:50;;;;;;;407.27;200.63;;;;;;;9.71;62.32;97019.16;5054737;28;20299;-64
2021/01/22 07:57:17;;;;;;;414.67;242.30;;;;;;;9.70;61.99;97015.75;5029818;28;20037;-64
2021/01/22 07:59:43;;;;;;;408.10;204.87;;;;;;;9.69;61.42;97026.03;5048732;28;20275;-63
2021/01/22 08:02:15;;;;;;;403.13;198.97;;;;;;;9.61;62.19;97016.97;5056641;28;20267;-67
2021/01/22 08:04:41;;;;;;;400.03;190.67;;;;;;;9.61;61.76;97023.78;5057957;28;20271;-64
2021/01/22 08:07:06;;;;;;;403.50;198.97;;;;;;;9.58;61.87;97023.94;5060439;28;20260;-65
2021/01/22 08:09:32;;;;;;;410.30;207.20;;;;;;;9.63;62.10;97022.81;5056987;28;20033;-64
2021/01/22 08:12:10;;;;;;;403.63;197.47;;;;;;;9.83;61.03;97016.06;5040627;28;20123;-64
2021/01/22 08:14:37;;;;;;;411.13;216.07;;;;;;;9.95;60.59;97015.53;5051797;28;20090;-65
2021/01/22 08:17:05;;;;;;;406.00;203.53;;;;;;;10.03;61.07;97011.75;5052930;28;20292;-65
2021/01/22 08:19:31;;;;;;;410.27;214.20;;;;;;;10.08;60.63;97007.28;5033043;28;20579;-65
2021/01/22 08:21:57;;;;;;;406.90;204.97;;;;;;;10.17;60.25;97011.22;5051287;28;20344;-66
2021/01/22 08:24:23;;;;;;;409.63;212.83;;;;;;;10.27;59.82;97017.56;5037314;28;20255;-65
2021/01/22 08:27:04;;;;;;;407.33;210.83;;;;;;;10.33;60.04;97011.38;5054915;28;20024;-62
2021/01/22 08:29:32;;;;;;;405.57;210.03;;;;;;;10.28;60.20;97010.72;5056989;28;20270;-65
2021/01/22 08:31:57;;;;;;;402.30;202.00;;;;;;;10.13;61.35;97009.66;5055640;28;20434;-65
2021/01/22 08:34:24;;;;;;;400.17;195.70;;;;;;;10.05;61.41;97007.44;5057542;28;20759;-66
2021/01/22 08:36:51;;;;;;;409.30;219.77;;;;;;;9.92;62.41;97008.00;5029021;28;20177;-65
2021/01/22 08:39:16;;;;;;;403.13;205.27;;;;;;;9.75;62.20;97013.84;5055021;28;20719;-64
2021/01/22 08:41:42;;;;;;;404.17;206.27;;;;;;;9.69;63.14;97019.19;5055168;28;20354;-65
2021/01/22 08:44:08;;;;;;;406.27;209.97;;;;;;;9.65;62.46;97025.34;5053455;28;20178;-65
2021/01/22 08:46:45;;;;;;;405.00;206.20;;;;;;;9.61;62.84;97032.31;5055932;28;20034;-66
2021/01/22 08:49:12;;;;;;;405.03;207.20;;;;;;;9.51;63.11;97027.59;5055878;28;20303;-65
2021/01/22 08:51:39;;;;;;;404.30;203.73;;;;;;;9.51;63.12;97025.88;5056726;28;20276;-64
2021/01/22 08:54:05;;;;;;;408.20;207.43;;;;;;;9.45;62.93;97031.28;5055072;28;20593;-64
2021/01/22 08:56:30;;;;;;;403.03;203.83;;;;;;;9.41;63.07;97032.28;5056955;28;20291;-65
2021/01/22 08:59:15;;;;;;;402.60;203.50;;;;;;;9.43;63.65;97040.72;5056972;28;20103;-64
2021/01/22 09:01:57;;;;;;;402.83;197.90;;;;;;;9.44;63.02;97046.66;5055951;28;20108;-65
2021/01/22 09:04:27;;;;;;;404.03;202.57;;;;;;;9.32;63.82;97044.59;5050747;28;20264;-64
2021/01/22 09:06:55;;;;;;;402.87;204.93;;;;;;;9.31;64.04;97051.44;5051156;28;20271;-64
2021/01/22 09:09:47;;;;;;;402.73;201.37;;;;;;;9.32;63.62;97054.81;5054720;28;20282;-64
2021/01/22 09:12:24;;;;;;;399.50;192.10;;;;;;;9.42;63.91;97051.03;5043418;28;20282;-64
2021/01/22 09:14:50;;;;;;;400.67;192.43;;;;;;;9.43;63.37;97050.94;5055724;28;20264;-64
2021/01/22 09:17:28;;;;;;;400.97;196.03;;;;;;;9.59;63.26;97052.00;5054818;28;20383;-64
2021/01/22 09:19:59;;;;;;;400.53;194.60;;;;;;;9.67;62.71;97048.31;5055331;28;20106;-65
2021/01/22 09:22:26;;;;;;;398.37;188.73;;;;;;;9.76;62.02;97053.88;5055279;28;20266;-65
2021/01/22 09:24:52;;;;;;;399.90;194.10;;;;;;;9.70;62.41;97048.19;5055089;28;20274;-65
2021/01/22 09:27:17;;;;;;;406.83;206.50;;;;;;;9.80;62.82;97050.28;5054408;28;20264;-65
2021/01/22 09:29:42;;;;;;;403.07;202.13;;;;;;;9.92;61.78;97037.00;5055226;28;20465;-65
2021/01/22 09:32:08;;;;;;;404.37;206.23;;;;;;;10.17;60.88;97030.88;5054540;28;20547;-64
2021/01/22 09:34:34;;;;;;;406.47;212.90;;;;;;;10.16;61.28;97026.63;5055078;28;20041;-65
2021/01/22 09:37:00;;;;;;;404.70;208.60;;;;;;;10.23;60.55;97033.97;5055058;28;20095;-65
2021/01/22 09:39:26;;;;;;;409.13;219.23;;;;;;;10.41;60.41;97029.78;5054361;28;20032;-65
2021/01/22 09:41:52;;;;;;;404.17;208.20;;;;;;;10.44;60.05;97030.47;5050904;28;20271;-65
2021/01/22 09:44:18;;;;;;;404.43;207.37;;;;;;;10.69;59.61;97032.81;5054451;28;20376;-64
2021/01/22 09:46:44;;;;;;;405.67;215.93;;;;;;;10.77;59.50;97033.28;5054924;28;20117;-65
2021/01/22 09:49:10;;;;;;;409.40;224.80;;;;;;;10.80;59.68;97037.44;5054907;28;20780;-65
2021/01/22 09:51:35;;;;;;;410.43;230.57;;;;;;;10.78;59.14;97037.50;5054507;28;20061;-65
2021/01/22 09:54:00;;;;;;;412.67;229.83;;;;;;;10.69;59.21;97037.94;5053999;28;20423;-65
2021/01/22 09:56:26;;;;;;;414.23;229.97;;;;;;;10.67;60.01;97041.44;5054457;28;20408;-64
2021/01/22 09:58:51;;;;;;;411.60;231.97;;;;;;;10.75;59.73;97040.19;5048594;28;20473;-67
2021/01/22 10:01:16;;;;;;;414.33;238.00;;;;;;;10.68;59.93;97040.56;5043917;28;20036;-65
2021/01/22 10:03:42;;;;;;;410.67;221.57;;;;;;;10.62;59.73;97038.25;5046448;28;20041;-64
2021/01/22 10:06:12;;;;;;;414.73;237.73;;;;;;;10.66;59.80;97037.22;5051019;28;20112;-64
2021/01/22 10:08:37;;;;;;;408.43;219.13;;;;;;;10.77;59.08;97043.53;5051770;28;20037;-64
2021/01/22 10:11:02;;;;;;;413.20;241.37;;;;;;;10.82;58.82;97041.56;5054214;28;20671;-64
2021/01/22 10:13:28;;;;;;;410.00;231.53;;;;;;;10.87;58.75;97047.34;5054223;28;20056;-65
2021/01/22 10:15:53;;;;;;;420.03;242.33;;;;;;;10.99;57.35;97040.81;5053923;28;20037;-65
2021/01/22 10:18:19;;;;;;;412.67;227.17;;;;;;;11.12;56.63;97044.47;5053975;28;20408;-64
2021/01/22 10:20:48;;;;;;;413.97;238.20;;;;;;;11.39;55.28;97030.34;5052184;28;20067;-63
2021/01/22 10:23:14;;;;;;;423.33;260.13;;;;;;;11.31;55.75;97036.75;5047452;28;20044;-64
2021/01/22 10:25:39;;;;;;;418.13;240.90;;;;;;;11.25;57.01;97037.03;5044930;28;20263;-65
2021/01/22 10:28:05;;;;;;;417.10;230.50;;;;;;;11.18;57.62;97036.50;5048626;28;20033;-66
2021/01/22 10:30:30;;;;;;;414.33;232.00;;;;;;;11.16;57.69;97029.78;5053726;28;20041;-65
2021/01/22 10:32:56;;;;;;;415.77;238.53;;;;;;;11.11;58.13;97021.47;5053902;28;20087;-65
2021/01/22 10:35:21;;;;;;;416.07;237.33;;;;;;;11.04;57.73;97018.34;5054356;28;20033;-64
2021/01/22 10:37:47;;;;;;;413.87;237.70;;;;;;;11.04;58.30;97012.38;5053757;28;20040;-65
2021/01/22 10:40:12;;;;;;;414.40;232.33;;;;;;;11.04;58.15;97012.38;5052890;28;20029;-65
2021/01/22 10:42:38;;;;;;;412.43;240.07;;;;;;;11.06;58.42;97016.56;5051361;28;20131;-65
2021/01/22 10:45:04;;;;;;;413.33;233.83;;;;;;;11.14;57.96;97017.03;5052548;28;20055;-64
2021/01/22 10:47:30;;;;;;;415.10;249.10;;;;;;;11.22;57.71;97004.66;5047956;28;20033;-64
2021/01/22 10:49:56;;;;;;;413.23;232.53;;;;;;;11.29;57.70;97003.47;5053598;28;20719;-64
2021/01/22 10:52:21;;;;;;;413.67;239.37;;;;;;;11.35;57.45;96999.78;5053791;28;20305;-64
2021/01/22 10:54:47;;;;;;;415.63;250.70;;;;;;;11.39;57.50;96996.16;5053639;28;20033;-65
2021/01/22 10:57:12;;;;;;;416.60;255.17;;;;;;;11.40;57.68;96995.25;5041211;28;20033;-65
2021/01/22 10:59:38;;;;;;;420.10;260.57;;;;;;;11.45;57.21;96995.88;5051536;28;20041;-64
2021/01/22 11:02:10;;;;;;;413.53;248.30;;;;;;;11.54;57.39;96992.03;5054345;28;20040;-65
2021/01/22 11:04:35;;;;;;;415.50;250.70;;;;;;;11.57;56.92;96997.00;5053750;28;20283;-64
2021/01/22 11:07:03;;;;;;;418.93;253.23;;;;;;;11.74;56.23;96986.78;5051522;28;20620;-65
2021/01/22 11:09:30;;;;;;;418.60;257.30;;;;;;;11.86;55.23;96986.97;5052490;28;20047;-66
2021/01/22 11:11:55;;;;;;;420.67;269.57;;;;;;;11.92;55.39;96982.44;5050798;28;20268;-64